sensor_id;sensor_type;location;lat;lon;timestamp;pressure;altitude;pressure_sealevel;temperature;humidity
63739;BME280;68816;45.558;10.070;2023-07-20T00:01:40;99399.84;;;26.30;64.64
63739;BME280;68816;45.558;10.070;2023-07-20T00:04:06;99389.31;;;26.43;65.20
63739;BME280;68816;45.558;10.070;2023-07-20T00:06:31;99394.41;;;26.37;66.08
63739;BME280;68816;45.558;10.070;2023-07-20T00:08:57;99450.00;;;26.05;66.89
63739;BME280;68816;45.558;10.070;2023-07-20T00:11:26;99493.19;;;25.78;67.77
63739;BME280;68816;45.558;10.070;2023-07-20T00:13:52;99557.75;;;25.10;69.49
63739;BME280;68816;45.558;10.070;2023-07-20T00:16:17;99521.25;;;24.67;70.44
63739;BME280;68816;45.558;10.070;2023-07-20T00:18:43;99364.53;;;25.10;72.56
63739;BME280;68816;45.558;10.070;2023-07-20T00:21:09;99346.56;;;25.51;72.08
63739;BME280;68816;45.558;10.070;2023-07-20T00:23:34;99354.47;;;25.69;70.67
63739;BME280;68816;45.558;10.070;2023-07-20T00:26:00;99360.88;;;25.66;69.87
63739;BME280;68816;45.558;10.070;2023-07-20T00:28:26;99391.44;;;25.73;68.88
63739;BME280;68816;45.558;10.070;2023-07-20T00:30:51;99390.38;;;25.65;69.21
63739;BME280;68816;45.558;10.070;2023-07-20T00:33:17;99374.66;;;25.80;69.74
63739;BME280;68816;45.558;10.070;2023-07-20T00:35:43;99372.22;;;25.91;70.02
63739;BME280;68816;45.558;10.070;2023-07-20T00:38:09;99381.53;;;25.91;70.72
63739;BME280;68816;45.558;10.070;2023-07-20T00:40:38;99385.88;;;25.76;70.34
63739;BME280;68816;45.558;10.070;2023-07-20T00:43:04;99401.47;;;25.83;69.15
63739;BME280;68816;45.558;10.070;2023-07-20T00:45:31;99408.91;;;25.87;69.88
63739;BME280;68816;45.558;10.070;2023-07-20T00:47:57;99395.31;;;26.05;69.14
63739;BME280;68816;45.558;10.070;2023-07-20T00:50:24;99387.66;;;26.05;70.04
63739;BME280;68816;45.558;10.070;2023-07-20T00:52:49;99388.50;;;25.94;70.58
63739;BME280;68816;45.558;10.070;2023-07-20T00:55:15;99386.59;;;25.98;70.52
63739;BME280;68816;45.558;10.070;2023-07-20T00:57:41;99380.22;;;26.01;70.30
63739;BME280;68816;45.558;10.070;2023-07-20T01:00:07;99375.03;;;25.91;70.64
63739;BME280;68816;45.558;10.070;2023-07-20T01:02:32;99373.25;;;25.86;70.49
63739;BME280;68816;45.558;10.070;2023-07-20T01:04:58;99382.13;;;25.85;71.57
63739;BME280;68816;45.558;10.070;2023-07-20T01:07:28;99383.47;;;25.54;71.25
63739;BME280;68816;45.558;10.070;2023-07-20T01:10:05;99391.06;;;25.17;73.01
63739;BME280;68816;45.558;10.070;2023-07-20T01:12:42;99383.00;;;25.07;73.22
63739;BME280;68816;45.558;10.070;2023-07-20T01:15:08;99385.19;;;25.34;72.12
63739;BME280;68816;45.558;10.070;2023-07-20T01:17:34;99382.34;;;24.89;73.77
63739;BME280;68816;45.558;10.070;2023-07-20T01:20:00;99373.91;;;25.02;73.03
63739;BME280;68816;45.558;10.070;2023-07-20T01:30:45;99353.41;;;25.50;72.75
63739;BME280;68816;45.558;10.070;2023-07-20T01:33:15;99349.41;;;25.63;72.60
63739;BME280;68816;45.558;10.070;2023-07-20T01:35:43;99353.06;;;25.63;72.16
63739;BME280;68816;45.558;10.070;2023-07-20T01:38:11;99363.22;;;25.64;72.95
63739;BME280;68816;45.558;10.070;2023-07-20T01:40:39;99368.28;;;25.59;73.17
63739;BME280;68816;45.558;10.070;2023-07-20T01:43:05;99354.38;;;25.66;72.75
63739;BME280;68816;45.558;10.070;2023-07-20T01:45:30;99343.38;;;25.64;73.34
63739;BME280;68816;45.558;10.070;2023-07-20T01:47:56;99338.06;;;25.63;72.64
63739;BME280;68816;45.558;10.070;2023-07-20T01:50:22;99346.22;;;25.64;72.32
63739;BME280;68816;45.558;10.070;2023-07-20T01:52:47;99350.47;;;25.70;72.37
63739;BME280;68816;45.558;10.070;2023-07-20T01:55:13;99364.84;;;25.53;72.82
63739;BME280;68816;45.558;10.070;2023-07-20T01:57:39;99359.91;;;25.74;72.88
63739;BME280;68816;45.558;10.070;2023-07-20T02:00:05;99337.84;;;25.80;72.74
63739;BME280;68816;45.558;10.070;2023-07-20T02:02:30;99337.38;;;25.78;72.09
63739;BME280;68816;45.558;10.070;2023-07-20T02:04:56;99339.28;;;25.74;72.19
63739;BME280;68816;45.558;10.070;2023-07-20T02:07:21;99347.16;;;25.68;71.67
63739;BME280;68816;45.558;10.070;2023-07-20T02:09:47;99340.56;;;25.76;72.46
63739;BME280;68816;45.558;10.070;2023-07-20T02:12:12;99345.53;;;25.80;72.03
63739;BME280;68816;45.558;10.070;2023-07-20T02:14:38;99343.63;;;25.71;72.31
63739;BME280;68816;45.558;10.070;2023-07-20T02:17:04;99351.91;;;25.76;71.69
63739;BME280;68816;45.558;10.070;2023-07-20T02:19:30;99367.38;;;25.34;73.49
63739;BME280;68816;45.558;10.070;2023-07-20T02:21:55;99351.00;;;25.52;72.76
63739;BME280;68816;45.558;10.070;2023-07-20T02:24:21;99345.78;;;25.62;72.21
63739;BME280;68816;45.558;10.070;2023-07-20T02:26:46;99351.63;;;25.57;72.04
63739;BME280;68816;45.558;10.070;2023-07-20T02:29:12;99353.41;;;25.50;71.98
63739;BME280;68816;45.558;10.070;2023-07-20T02:31:38;99351.19;;;25.22;73.50
63739;BME280;68816;45.558;10.070;2023-07-20T02:34:05;99338.63;;;25.32;72.65
63739;BME280;68816;45.558;10.070;2023-07-20T02:36:31;99340.16;;;25.42;73.05
63739;BME280;68816;45.558;10.070;2023-07-20T02:39:00;99347.38;;;25.39;72.22
63739;BME280;68816;45.558;10.070;2023-07-20T02:41:27;99342.03;;;25.25;72.96
63739;BME280;68816;45.558;10.070;2023-07-20T02:43:52;99330.44;;;25.18;74.00
63739;BME280;68816;45.558;10.070;2023-07-20T02:46:17;99332.81;;;25.28;73.42
63739;BME280;68816;45.558;10.070;2023-07-20T02:48:43;99334.38;;;25.26;73.51
63739;BME280;68816;45.558;10.070;2023-07-20T02:51:09;99334.69;;;25.12;73.94
63739;BME280;68816;45.558;10.070;2023-07-20T02:53:34;99334.38;;;25.26;73.49
63739;BME280;68816;45.558;10.070;2023-07-20T02:56:00;99337.19;;;25.26;73.59
63739;BME280;68816;45.558;10.070;2023-07-20T02:58:25;99344.75;;;25.34;73.68
63739;BME280;68816;45.558;10.070;2023-07-20T03:00:51;99342.59;;;25.19;73.83
63739;BME280;68816;45.558;10.070;2023-07-20T03:03:16;99343.13;;;25.00;74.54
63739;BME280;68816;45.558;10.070;2023-07-20T03:05:42;99337.16;;;25.14;73.87
63739;BME280;68816;45.558;10.070;2023-07-20T03:08:08;99338.69;;;25.11;74.46
63739;BME280;68816;45.558;10.070;2023-07-20T03:10:41;99338.91;;;25.06;74.95
63739;BME280;68816;45.558;10.070;2023-07-20T03:13:07;99345.28;;;25.03;74.41
63739;BME280;68816;45.558;10.070;2023-07-20T03:15:33;99351.88;;;24.74;75.64
63739;BME280;68816;45.558;10.070;2023-07-20T03:17:59;99350.47;;;24.80;75.75
63739;BME280;68816;45.558;10.070;2023-07-20T03:20:24;99356.94;;;25.02;75.14
63739;BME280;68816;45.558;10.070;2023-07-20T03:22:50;99351.06;;;25.07;74.01
63739;BME280;68816;45.558;10.070;2023-07-20T03:25:15;99349.66;;;24.80;74.59
63739;BME280;68816;45.558;10.070;2023-07-20T03:27:42;99362.00;;;24.54;75.79
63739;BME280;68816;45.558;10.070;2023-07-20T03:30:08;99357.59;;;24.66;75.92
63739;BME280;68816;45.558;10.070;2023-07-20T03:32:35;99359.25;;;24.67;74.72
63739;BME280;68816;45.558;10.070;2023-07-20T03:35:01;99350.94;;;24.82;74.49
63739;BME280;68816;45.558;10.070;2023-07-20T03:37:26;99350.66;;;24.75;74.73
63739;BME280;68816;45.558;10.070;2023-07-20T03:39:51;99353.31;;;24.80;74.72
63739;BME280;68816;45.558;10.070;2023-07-20T03:42:17;99349.25;;;24.90;74.57
63739;BME280;68816;45.558;10.070;2023-07-20T03:44:42;99346.94;;;24.83;74.77
63739;BME280;68816;45.558;10.070;2023-07-20T03:47:08;99358.75;;;24.85;74.82
63739;BME280;68816;45.558;10.070;2023-07-20T03:49:34;99357.31;;;24.79;74.64
63739;BME280;68816;45.558;10.070;2023-07-20T03:52:01;99358.41;;;24.66;75.15
63739;BME280;68816;45.558;10.070;2023-07-20T03:54:28;99355.84;;;24.73;75.25
63739;BME280;68816;45.558;10.070;2023-07-20T03:56:54;99352.59;;;25.04;75.43
63739;BME280;68816;45.558;10.070;2023-07-20T03:59:20;99358.94;;;25.01;75.24
63739;BME280;68816;45.558;10.070;2023-07-20T04:01:45;99357.16;;;24.97;74.27
63739;BME280;68816;45.558;10.070;2023-07-20T04:04:11;99363.91;;;25.04;74.05
63739;BME280;68816;45.558;10.070;2023-07-20T04:06:37;99362.38;;;25.07;74.27
63739;BME280;68816;45.558;10.070;2023-07-20T04:09:03;99350.09;;;25.03;74.25
63739;BME280;68816;45.558;10.070;2023-07-20T04:11:30;99362.91;;;25.21;73.91
63739;BME280;68816;45.558;10.070;2023-07-20T04:13:55;99355.84;;;25.39;73.77
63739;BME280;68816;45.558;10.070;2023-07-20T04:16:21;99351.13;;;25.31;73.99
63739;BME280;68816;45.558;10.070;2023-07-20T04:18:47;99358.56;;;25.35;74.02
63739;BME280;68816;45.558;10.070;2023-07-20T04:21:12;99350.28;;;25.30;74.09
63739;BME280;68816;45.558;10.070;2023-07-20T04:23:38;99360.56;;;25.35;73.72
63739;BME280;68816;45.558;10.070;2023-07-20T04:26:03;99352.19;;;24.93;73.97
63739;BME280;68816;45.558;10.070;2023-07-20T04:28:29;99358.06;;;25.21;74.32
63739;BME280;68816;45.558;10.070;2023-07-20T04:31:09;99357.38;;;25.36;73.90
63739;BME280;68816;45.558;10.070;2023-07-20T04:33:34;99364.06;;;25.20;73.57
63739;BME280;68816;45.558;10.070;2023-07-20T04:36:00;99362.16;;;25.12;74.26
63739;BME280;68816;45.558;10.070;2023-07-20T04:38:25;99357.88;;;25.39;73.84
63739;BME280;68816;45.558;10.070;2023-07-20T04:40:51;99361.81;;;25.13;73.05
63739;BME280;68816;45.558;10.070;2023-07-20T04:43:17;99358.28;;;25.28;73.74
63739;BME280;68816;45.558;10.070;2023-07-20T04:45:43;99354.91;;;25.47;73.01
63739;BME280;68816;45.558;10.070;2023-07-20T04:48:11;99354.19;;;25.38;73.06
63739;BME280;68816;45.558;10.070;2023-07-20T04:50:39;99361.88;;;25.38;73.24
63739;BME280;68816;45.558;10.070;2023-07-20T04:53:05;99362.63;;;25.14;73.48
63739;BME280;68816;45.558;10.070;2023-07-20T04:55:31;99369.84;;;25.23;73.07
63739;BME280;68816;45.558;10.070;2023-07-20T04:57:59;99361.91;;;25.17;73.61
63739;BME280;68816;45.558;10.070;2023-07-20T05:00:25;99359.47;;;25.15;74.14
63739;BME280;68816;45.558;10.070;2023-07-20T05:02:50;99366.19;;;25.23;74.01
63739;BME280;68816;45.558;10.070;2023-07-20T05:05:16;99362.75;;;25.17;74.89
63739;BME280;68816;45.558;10.070;2023-07-20T05:07:41;99361.69;;;25.10;75.19
63739;BME280;68816;45.558;10.070;2023-07-20T05:10:07;99367.31;;;24.98;76.43
63739;BME280;68816;45.558;10.070;2023-07-20T05:12:33;99364.22;;;24.90;75.95
63739;BME280;68816;45.558;10.070;2023-07-20T05:14:58;99356.50;;;25.12;75.99
63739;BME280;68816;45.558;10.070;2023-07-20T05:17:24;99363.63;;;25.42;74.75
63739;BME280;68816;45.558;10.070;2023-07-20T05:19:50;99369.28;;;25.30;75.19
63739;BME280;68816;45.558;10.070;2023-07-20T05:22:17;99357.44;;;25.04;76.42
63739;BME280;68816;45.558;10.070;2023-07-20T05:24:42;99367.34;;;25.22;76.23
63739;BME280;68816;45.558;10.070;2023-07-20T05:27:08;99368.34;;;25.26;75.72
63739;BME280;68816;45.558;10.070;2023-07-20T05:29:33;99370.00;;;25.39;75.15
63739;BME280;68816;45.558;10.070;2023-07-20T05:31:59;99369.78;;;25.44;76.29
63739;BME280;68816;45.558;10.070;2023-07-20T05:34:24;99370.25;;;25.46;76.21
63739;BME280;68816;45.558;10.070;2023-07-20T05:36:50;99378.13;;;25.41;75.65
63739;BME280;68816;45.558;10.070;2023-07-20T05:39:18;99371.06;;;25.47;76.03
63739;BME280;68816;45.558;10.070;2023-07-20T05:41:43;99369.31;;;25.54;75.54
63739;BME280;68816;45.558;10.070;2023-07-20T05:44:09;99373.66;;;25.52;75.71
63739;BME280;68816;45.558;10.070;2023-07-20T05:46:34;99387.19;;;25.79;74.79
63739;BME280;68816;45.558;10.070;2023-07-20T05:49:00;99375.72;;;25.88;74.15
63739;BME280;68816;45.558;10.070;2023-07-20T05:51:27;99385.13;;;25.43;72.64
63739;BME280;68816;45.558;10.070;2023-07-20T05:53:52;99388.22;;;25.74;73.70
63739;BME280;68816;45.558;10.070;2023-07-20T05:56:18;99380.56;;;25.75;70.97
63739;BME280;68816;45.558;10.070;2023-07-20T05:58:43;99381.63;;;25.83;72.86
63739;BME280;68816;45.558;10.070;2023-07-20T06:01:09;99385.75;;;26.09;71.45
63739;BME280;68816;45.558;10.070;2023-07-20T06:03:34;99385.63;;;26.18;70.85
63739;BME280;68816;45.558;10.070;2023-07-20T06:06:00;99385.31;;;26.07;71.95
63739;BME280;68816;45.558;10.070;2023-07-20T06:08:28;99387.03;;;25.63;72.49
63739;BME280;68816;45.558;10.070;2023-07-20T06:10:54;99385.91;;;26.01;70.90
63739;BME280;68816;45.558;10.070;2023-07-20T06:13:20;99382.47;;;26.32;69.43
63739;BME280;68816;45.558;10.070;2023-07-20T06:15:45;99389.91;;;26.24;70.22
63739;BME280;68816;45.558;10.070;2023-07-20T06:18:11;99381.47;;;26.52;69.92
63739;BME280;68816;45.558;10.070;2023-07-20T06:20:36;99381.44;;;26.64;69.93
63739;BME280;68816;45.558;10.070;2023-07-20T06:23:02;99386.78;;;26.53;70.03
63739;BME280;68816;45.558;10.070;2023-07-20T06:25:27;99388.22;;;26.47;69.06
63739;BME280;68816;45.558;10.070;2023-07-20T06:27:55;99392.44;;;26.66;68.79
63739;BME280;68816;45.558;10.070;2023-07-20T06:30:21;99395.22;;;26.90;68.80
63739;BME280;68816;45.558;10.070;2023-07-20T06:32:47;99382.72;;;26.79;68.88
63739;BME280;68816;45.558;10.070;2023-07-20T06:35:13;99388.13;;;26.84;68.20
63739;BME280;68816;45.558;10.070;2023-07-20T06:37:38;99395.22;;;26.90;69.54
63739;BME280;68816;45.558;10.070;2023-07-20T06:40:04;99389.22;;;27.07;68.78
63739;BME280;68816;45.558;10.070;2023-07-20T06:42:30;99396.56;;;27.08;67.63
63739;BME280;68816;45.558;10.070;2023-07-20T06:44:57;99394.97;;;26.83;66.84
63739;BME280;68816;45.558;10.070;2023-07-20T06:47:22;99392.47;;;26.53;68.22
63739;BME280;68816;45.558;10.070;2023-07-20T06:49:50;99395.28;;;26.66;67.82
63739;BME280;68816;45.558;10.070;2023-07-20T06:52:15;99388.75;;;27.05;67.77
63739;BME280;68816;45.558;10.070;2023-07-20T06:54:41;99398.59;;;27.23;67.67
63739;BME280;68816;45.558;10.070;2023-07-20T06:57:06;99386.91;;;27.41;68.83
63739;BME280;68816;45.558;10.070;2023-07-20T06:59:31;99389.72;;;27.53;67.97
63739;BME280;68816;45.558;10.070;2023-07-20T07:01:57;99383.28;;;27.56;66.66
63739;BME280;68816;45.558;10.070;2023-07-20T07:04:22;99385.69;;;27.54;67.36
63739;BME280;68816;45.558;10.070;2023-07-20T07:06:48;99386.78;;;27.65;66.76
63739;BME280;68816;45.558;10.070;2023-07-20T07:09:14;99391.59;;;27.49;66.89
63739;BME280;68816;45.558;10.070;2023-07-20T07:11:39;99378.91;;;27.74;66.45
63739;BME280;68816;45.558;10.070;2023-07-20T07:14:04;99388.41;;;27.97;66.66
63739;BME280;68816;45.558;10.070;2023-07-20T07:16:30;99390.06;;;27.98;65.33
63739;BME280;68816;45.558;10.070;2023-07-20T07:18:55;99390.19;;;28.17;64.25
63739;BME280;68816;45.558;10.070;2023-07-20T07:21:21;99385.00;;;28.07;63.33
63739;BME280;68816;45.558;10.070;2023-07-20T07:23:46;99391.84;;;28.18;64.04
63739;BME280;68816;45.558;10.070;2023-07-20T07:26:12;99388.31;;;28.25;64.21
63739;BME280;68816;45.558;10.070;2023-07-20T07:28:38;99391.38;;;28.16;62.36
63739;BME280;68816;45.558;10.070;2023-07-20T07:31:07;99387.50;;;27.93;62.98
63739;BME280;68816;45.558;10.070;2023-07-20T07:33:32;99382.38;;;28.14;63.12
63739;BME280;68816;45.558;10.070;2023-07-20T07:35:58;99387.66;;;28.32;62.10
63739;BME280;68816;45.558;10.070;2023-07-20T07:38:24;99391.03;;;28.37;60.45
63739;BME280;68816;45.558;10.070;2023-07-20T07:40:49;99394.50;;;28.46;60.57
63739;BME280;68816;45.558;10.070;2023-07-20T07:43:14;99394.34;;;28.39;55.79
63739;BME280;68816;45.558;10.070;2023-07-20T07:45:40;99387.91;;;28.42;56.56
63739;BME280;68816;45.558;10.070;2023-07-20T07:48:06;99393.09;;;28.56;56.25
63739;BME280;68816;45.558;10.070;2023-07-20T07:50:33;99393.84;;;28.53;58.36
63739;BME280;68816;45.558;10.070;2023-07-20T07:52:59;99392.59;;;28.70;58.66
63739;BME280;68816;45.558;10.070;2023-07-20T07:55:25;99395.81;;;28.68;58.12
63739;BME280;68816;45.558;10.070;2023-07-20T07:57:52;99391.09;;;28.56;57.86
63739;BME280;68816;45.558;10.070;2023-07-20T08:00:18;99390.53;;;28.51;56.35
63739;BME280;68816;45.558;10.070;2023-07-20T08:02:45;99397.13;;;28.55;57.26
63739;BME280;68816;45.558;10.070;2023-07-20T08:05:12;99394.97;;;28.68;55.66
63739;BME280;68816;45.558;10.070;2023-07-20T08:07:38;99401.56;;;28.72;55.34
63739;BME280;68816;45.558;10.070;2023-07-20T08:10:04;99409.41;;;28.75;54.96
63739;BME280;68816;45.558;10.070;2023-07-20T08:12:30;99410.47;;;29.05;55.42
63739;BME280;68816;45.558;10.070;2023-07-20T08:14:55;99416.06;;;29.02;54.21
63739;BME280;68816;45.558;10.070;2023-07-20T08:17:21;99417.28;;;29.20;53.58
63739;BME280;68816;45.558;10.070;2023-07-20T08:19:46;99409.88;;;29.15;53.17
63739;BME280;68816;45.558;10.070;2023-07-20T08:22:12;99413.38;;;29.09;51.63
63739;BME280;68816;45.558;10.070;2023-07-20T08:24:41;99417.56;;;28.95;53.21
63739;BME280;68816;45.558;10.070;2023-07-20T08:27:07;99419.22;;;28.96;56.08
63739;BME280;68816;45.558;10.070;2023-07-20T08:29:36;99417.28;;;28.81;56.49
63739;BME280;68816;45.558;10.070;2023-07-20T08:32:03;99416.91;;;29.02;58.15
63739;BME280;68816;45.558;10.070;2023-07-20T08:34:29;99410.53;;;29.09;57.66
63739;BME280;68816;45.558;10.070;2023-07-20T08:36:55;99412.34;;;29.17;59.19
63739;BME280;68816;45.558;10.070;2023-07-20T08:39:21;99412.47;;;28.85;55.68
63739;BME280;68816;45.558;10.070;2023-07-20T08:41:48;99420.72;;;28.90;56.92
63739;BME280;68816;45.558;10.070;2023-07-20T08:44:14;99418.78;;;28.94;58.02
63739;BME280;68816;45.558;10.070;2023-07-20T08:46:41;99418.41;;;28.77;56.74
63739;BME280;68816;45.558;10.070;2023-07-20T08:49:07;99420.56;;;29.22;57.13
63739;BME280;68816;45.558;10.070;2023-07-20T08:51:35;99418.03;;;29.17;55.31
63739;BME280;68816;45.558;10.070;2023-07-20T08:54:02;99422.22;;;29.23;56.34
63739;BME280;68816;45.558;10.070;2023-07-20T08:56:28;99419.06;;;29.28;56.99
63739;BME280;68816;45.558;10.070;2023-07-20T08:58:56;99412.19;;;29.10;56.25
63739;BME280;68816;45.558;10.070;2023-07-20T09:01:22;99420.50;;;29.18;57.13
63739;BME280;68816;45.558;10.070;2023-07-20T09:03:48;99427.16;;;29.26;56.34
63739;BME280;68816;45.558;10.070;2023-07-20T09:06:14;99416.75;;;29.75;54.49
63739;BME280;68816;45.558;10.070;2023-07-20T09:08:41;99430.28;;;29.59;55.06
63739;BME280;68816;45.558;10.070;2023-07-20T09:11:10;99430.09;;;29.49;54.86
63739;BME280;68816;45.558;10.070;2023-07-20T09:13:35;99418.97;;;29.86;54.88
63739;BME280;68816;45.558;10.070;2023-07-20T09:16:02;99425.06;;;30.07;55.42
63739;BME280;68816;45.558;10.070;2023-07-20T09:18:31;99423.31;;;29.99;53.45
63739;BME280;68816;45.558;10.070;2023-07-20T09:21:04;99423.59;;;29.94;51.39
63739;BME280;68816;45.558;10.070;2023-07-20T09:23:35;99417.50;;;30.18;53.06
63739;BME280;68816;45.558;10.070;2023-07-20T09:26:09;99423.78;;;30.27;52.22
63739;BME280;68816;45.558;10.070;2023-07-20T09:28:48;99420.56;;;30.06;52.47
63739;BME280;68816;45.558;10.070;2023-07-20T09:31:21;99424.38;;;30.13;52.44
63739;BME280;68816;45.558;10.070;2023-07-20T09:33:47;99418.88;;;30.01;52.59
63739;BME280;68816;45.558;10.070;2023-07-20T09:36:14;99414.91;;;30.32;52.77
63739;BME280;68816;45.558;10.070;2023-07-20T09:38:41;99411.38;;;30.16;51.89
63739;BME280;68816;45.558;10.070;2023-07-20T09:41:07;99414.22;;;30.16;51.65
63739;BME280;68816;45.558;10.070;2023-07-20T09:43:34;99417.41;;;30.11;51.86
63739;BME280;68816;45.558;10.070;2023-07-20T09:46:00;99415.31;;;30.08;52.08
63739;BME280;68816;45.558;10.070;2023-07-20T09:48:25;99399.75;;;30.28;51.86
63739;BME280;68816;45.558;10.070;2023-07-20T09:50:56;99404.03;;;30.68;50.87
63739;BME280;68816;45.558;10.070;2023-07-20T09:53:24;99410.63;;;30.72;50.98
63739;BME280;68816;45.558;10.070;2023-07-20T09:55:51;99400.72;;;30.92;50.41
63739;BME280;68816;45.558;10.070;2023-07-20T09:58:17;99406.66;;;30.80;49.93
63739;BME280;68816;45.558;10.070;2023-07-20T10:00:44;99400.91;;;31.06;50.34
63739;BME280;68816;45.558;10.070;2023-07-20T10:03:18;99400.50;;;31.41;49.29
63739;BME280;68816;45.558;10.070;2023-07-20T10:05:51;99394.03;;;30.81;49.72
63739;BME280;68816;45.558;10.070;2023-07-20T10:08:18;99394.06;;;30.84;48.95
63739;BME280;68816;45.558;10.070;2023-07-20T10:10:47;99390.41;;;31.14;48.63
63739;BME280;68816;45.558;10.070;2023-07-20T10:13:27;99390.03;;;31.19;49.58
63739;BME280;68816;45.558;10.070;2023-07-20T10:16:02;99378.72;;;31.29;49.79
63739;BME280;68816;45.558;10.070;2023-07-20T10:18:33;99388.88;;;31.23;48.74
63739;BME280;68816;45.558;10.070;2023-07-20T10:21:00;99393.47;;;31.68;50.08
63739;BME280;68816;45.558;10.070;2023-07-20T10:23:29;99381.78;;;31.47;49.09
63739;BME280;68816;45.558;10.070;2023-07-20T10:25:56;99380.56;;;31.85;49.24
63739;BME280;68816;45.558;10.070;2023-07-20T10:28:23;99385.94;;;31.94;47.73
63739;BME280;68816;45.558;10.070;2023-07-20T10:30:49;99385.47;;;31.85;48.42
63739;BME280;68816;45.558;10.070;2023-07-20T10:33:16;99387.13;;;31.52;48.97
63739;BME280;68816;45.558;10.070;2023-07-20T10:38:18;99378.53;;;31.49;49.14
63739;BME280;68816;45.558;10.070;2023-07-20T10:40:54;99372.81;;;31.12;48.86
63739;BME280;68816;45.558;10.070;2023-07-20T10:43:20;99380.81;;;31.32;48.72
63739;BME280;68816;45.558;10.070;2023-07-20T10:45:50;99373.56;;;31.79;48.37
63739;BME280;68816;45.558;10.070;2023-07-20T10:48:21;99370.03;;;31.96;47.82
63739;BME280;68816;45.558;10.070;2023-07-20T10:51:13;99369.97;;;31.89;47.96
63739;BME280;68816;45.558;10.070;2023-07-20T10:53:42;99363.19;;;32.11;47.79
63739;BME280;68816;45.558;10.070;2023-07-20T10:56:14;99370.28;;;32.25;47.24
63739;BME280;68816;45.558;10.070;2023-07-20T10:58:41;99369.53;;;32.35;47.51
63739;BME280;68816;45.558;10.070;2023-07-20T11:01:07;99352.59;;;32.70;49.97
63739;BME280;68816;45.558;10.070;2023-07-20T11:03:37;99363.69;;;32.79;46.91
63739;BME280;68816;45.558;10.070;2023-07-20T11:08:48;99347.50;;;32.42;47.98
63739;BME280;68816;45.558;10.070;2023-07-20T11:11:39;99356.16;;;32.53;47.07
63739;BME280;68816;45.558;10.070;2023-07-20T11:16:43;99356.81;;;33.01;46.71
63739;BME280;68816;45.558;10.070;2023-07-20T11:21:42;99346.19;;;33.09;45.93
63739;BME280;68816;45.558;10.070;2023-07-20T11:24:08;99341.00;;;32.52;45.61
63739;BME280;68816;45.558;10.070;2023-07-20T11:26:54;99341.41;;;31.96;46.51
63739;BME280;68816;45.558;10.070;2023-07-20T11:29:22;99336.13;;;32.60;46.35
63739;BME280;68816;45.558;10.070;2023-07-20T11:31:49;99330.59;;;32.95;46.56
63739;BME280;68816;45.558;10.070;2023-07-20T11:34:16;99331.56;;;33.31;46.33
63739;BME280;68816;45.558;10.070;2023-07-20T11:36:44;99328.44;;;32.71;45.82
63739;BME280;68816;45.558;10.070;2023-07-20T11:39:10;99326.41;;;32.75;45.36
63739;BME280;68816;45.558;10.070;2023-07-20T11:41:36;99327.25;;;32.76;45.46
63739;BME280;68816;45.558;10.070;2023-07-20T11:44:04;99323.88;;;32.59;45.00
63739;BME280;68816;45.558;10.070;2023-07-20T11:46:31;99317.41;;;32.73;45.95
63739;BME280;68816;45.558;10.070;2023-07-20T11:49:00;99317.53;;;33.09;44.78
63739;BME280;68816;45.558;10.070;2023-07-20T11:51:29;99316.72;;;33.08;45.05
63739;BME280;68816;45.558;10.070;2023-07-20T11:53:56;99310.13;;;32.93;45.46
63739;BME280;68816;45.558;10.070;2023-07-20T11:56:23;99307.69;;;33.10;44.43
63739;BME280;68816;45.558;10.070;2023-07-20T11:58:49;99317.84;;;32.82;45.82
63739;BME280;68816;45.558;10.070;2023-07-20T12:01:15;99315.47;;;33.06;45.01
63739;BME280;68816;45.558;10.070;2023-07-20T12:03:44;99305.22;;;32.94;44.15
63739;BME280;68816;45.558;10.070;2023-07-20T12:06:10;99311.78;;;33.01;44.10
63739;BME280;68816;45.558;10.070;2023-07-20T12:08:39;99304.44;;;33.08;45.51
63739;BME280;68816;45.558;10.070;2023-07-20T12:11:06;99308.94;;;33.01;44.61
63739;BME280;68816;45.558;10.070;2023-07-20T12:13:40;99306.13;;;33.26;43.84
63739;BME280;68816;45.558;10.070;2023-07-20T12:16:16;99297.16;;;33.42;43.98
63739;BME280;68816;45.558;10.070;2023-07-20T12:18:44;99293.06;;;33.50;43.79
63739;BME280;68816;45.558;10.070;2023-07-20T12:21:10;99310.22;;;33.22;44.11
63739;BME280;68816;45.558;10.070;2023-07-20T12:23:40;99301.22;;;33.27;43.49
63739;BME280;68816;45.558;10.070;2023-07-20T12:26:07;99304.91;;;33.38;42.42
63739;BME280;68816;45.558;10.070;2023-07-20T12:28:36;99294.69;;;33.44;42.28
63739;BME280;68816;45.558;10.070;2023-07-20T12:31:03;99292.25;;;33.46;42.31
63739;BME280;68816;45.558;10.070;2023-07-20T12:33:29;99287.38;;;33.71;42.86
63739;BME280;68816;45.558;10.070;2023-07-20T12:35:54;99288.13;;;33.29;41.64
63739;BME280;68816;45.558;10.070;2023-07-20T12:38:21;99286.50;;;33.39;43.38
63739;BME280;68816;45.558;10.070;2023-07-20T12:40:47;99276.66;;;33.61;42.76
63739;BME280;68816;45.558;10.070;2023-07-20T12:43:13;99278.34;;;33.84;42.09
63739;BME280;68816;45.558;10.070;2023-07-20T12:45:39;99271.78;;;33.72;41.52
63739;BME280;68816;45.558;10.070;2023-07-20T12:48:04;99264.38;;;34.21;41.32
63739;BME280;68816;45.558;10.070;2023-07-20T12:50:30;99264.28;;;34.42;40.13
63739;BME280;68816;45.558;10.070;2023-07-20T12:52:55;99263.53;;;34.17;40.96
63739;BME280;68816;45.558;10.070;2023-07-20T12:55:21;99267.66;;;33.98;41.33
63739;BME280;68816;45.558;10.070;2023-07-20T12:57:46;99258.19;;;34.33;41.53
63739;BME280;68816;45.558;10.070;2023-07-20T13:00:14;99256.09;;;34.41;40.86
63739;BME280;68816;45.558;10.070;2023-07-20T13:02:40;99252.47;;;34.08;41.43
63739;BME280;68816;45.558;10.070;2023-07-20T13:05:06;99259.44;;;34.18;41.82
63739;BME280;68816;45.558;10.070;2023-07-20T13:07:37;99254.94;;;34.06;40.82